createdAt,value
2022-09-20T00:00:12.682Z,0
2022-09-20T00:01:28.877Z,0
2022-09-20T00:02:45.322Z,0
2022-09-20T00:04:01.503Z,0
2022-09-20T00:05:17.705Z,0
2022-09-20T00:06:33.883Z,0
2022-09-20T00:07:49.100Z,0
2022-09-20T00:09:05.028Z,0
2022-09-20T00:10:21.467Z,0
2022-09-20T00:11:37.391Z,0
2022-09-20T00:12:53.858Z,0
2022-09-20T00:14:10.047Z,0
2022-09-20T00:15:25.242Z,0
2022-09-20T00:16:41.168Z,0
2022-09-20T00:17:57.632Z,0
2022-09-20T00:19:13.810Z,0
2022-09-20T00:20:29.736Z,0
2022-09-20T00:21:46.189Z,0
2022-09-20T00:23:02.390Z,0
2022-09-20T00:24:18.309Z,0
2022-09-20T00:25:34.759Z,0
2022-09-20T00:26:50.955Z,0
2022-09-20T00:28:07.144Z,0
2022-09-20T00:29:23.323Z,0
2022-09-20T00:30:39.519Z,0
2022-09-20T00:31:54.456Z,0
2022-09-20T00:33:10.633Z,0
2022-09-20T00:34:27.109Z,0
2022-09-20T00:35:43.283Z,0
2022-09-20T00:36:59.210Z,0
2022-09-20T00:38:15.396Z,0
2022-09-20T00:39:31.589Z,0
2022-09-20T00:40:48.041Z,0
2022-09-20T00:42:04.000Z,0
2022-09-20T00:43:20.419Z,0
2022-09-20T00:44:36.613Z,0
2022-09-20T00:45:52.801Z,0
2022-09-20T00:47:08.720Z,0
2022-09-20T00:48:24.189Z,0
2022-09-20T00:49:40.382Z,0
2022-09-20T00:50:56.285Z,0
2022-09-20T00:52:12.766Z,0
2022-09-20T00:53:28.954Z,0
2022-09-20T00:54:44.862Z,0
2022-09-20T00:56:01.048Z,0
2022-09-20T00:57:17.507Z,0
2022-09-20T00:58:33.704Z,0
2022-09-20T00:59:49.902Z,0
2022-09-20T01:01:05.798Z,0
2022-09-20T01:02:22.279Z,0
2022-09-20T01:03:38.175Z,0
2022-09-20T01:04:53.388Z,0
2022-09-20T01:06:09.847Z,0
2022-09-20T01:07:26.046Z,0
2022-09-20T01:08:42.236Z,0
2022-09-20T01:09:58.149Z,0
2022-09-20T01:11:14.608Z,0
2022-09-20T01:12:30.530Z,0
2022-09-20T01:13:46.981Z,0
2022-09-20T01:15:03.173Z,0
2022-09-20T01:16:19.082Z,0
2022-09-20T01:17:35.268Z,0
2022-09-20T01:18:51.455Z,0
2022-09-20T01:20:07.932Z,0
2022-09-20T01:21:23.141Z,0
2022-09-20T01:22:39.337Z,0
2022-09-20T01:23:55.521Z,0
2022-09-20T01:25:11.416Z,0
2022-09-20T01:26:27.895Z,0
2022-09-20T01:27:44.091Z,0
2022-09-20T01:29:00.277Z,0
2022-09-20T01:30:16.184Z,0
2022-09-20T01:31:32.662Z,0
2022-09-20T01:32:48.554Z,0
2022-09-20T01:34:05.033Z,0
2022-09-20T01:35:21.217Z,0
2022-09-20T01:36:37.399Z,0
2022-09-20T01:37:52.622Z,0
2022-09-20T01:39:08.805Z,0
2022-09-20T01:40:25.004Z,0
2022-09-20T01:41:40.906Z,0
2022-09-20T01:42:57.369Z,0
2022-09-20T01:44:13.562Z,0
2022-09-20T01:45:29.455Z,0
2022-09-20T01:46:45.944Z,0
2022-09-20T01:48:01.851Z,0
2022-09-20T01:49:18.321Z,0
2022-09-20T01:50:34.503Z,0
2022-09-20T01:51:50.406Z,0
2022-09-20T01:53:06.889Z,0
2022-09-20T01:54:22.083Z,0
2022-09-20T01:55:38.280Z,0
2022-09-20T01:56:54.468Z,0
2022-09-20T01:58:10.669Z,0
2022-09-20T01:59:26.851Z,0
2022-09-20T02:00:43.048Z,0
2022-09-20T02:01:59.232Z,0
2022-09-20T02:03:15.120Z,0
2022-09-20T02:04:31.611Z,0
2022-09-20T02:05:47.510Z,0
2022-09-20T02:07:03.992Z,0
2022-09-20T02:08:20.167Z,0
2022-09-20T02:09:36.067Z,0
2022-09-20T02:10:51.567Z,0
2022-09-20T02:12:07.754Z,0
2022-09-20T02:13:23.938Z,0
2022-09-20T02:14:40.133Z,0
2022-09-20T02:15:56.039Z,0
2022-09-20T02:17:12.214Z,0
2022-09-20T02:18:28.398Z,0
2022-09-20T02:19:44.605Z,0
2022-09-20T02:21:01.087Z,0
2022-09-20T02:22:17.277Z,0
2022-09-20T02:23:33.157Z,0
2022-09-20T02:24:49.656Z,0
2022-09-20T02:26:05.843Z,0
2022-09-20T02:27:21.038Z,0
2022-09-20T02:28:36.934Z,0
2022-09-20T02:29:53.430Z,0
2022-09-20T02:31:09.615Z,0
2022-09-20T02:32:25.790Z,0
2022-09-20T02:33:41.690Z,0
2022-09-20T02:34:58.179Z,0
2022-09-20T02:36:14.361Z,0
2022-09-20T02:37:30.545Z,0
2022-09-20T02:38:46.446Z,0
2022-09-20T02:40:02.936Z,0
2022-09-20T02:41:19.117Z,0
2022-09-20T02:42:35.318Z,0
2022-09-20T02:43:50.220Z,0
2022-09-20T02:45:06.416Z,0
2022-09-20T02:46:22.900Z,0
2022-09-20T02:47:39.084Z,0
2022-09-20T02:48:54.973Z,0
2022-09-20T02:50:11.463Z,0
2022-09-20T02:51:27.661Z,0
2022-09-20T02:52:43.544Z,0
2022-09-20T02:54:00.034Z,0
2022-09-20T02:55:16.212Z,0
2022-09-20T02:56:32.108Z,0
2022-09-20T02:57:48.298Z,0
2022-09-20T02:59:04.789Z,0
2022-09-20T03:00:19.998Z,0
2022-09-20T03:01:36.187Z,0
2022-09-20T03:02:52.367Z,0
2022-09-20T03:04:08.269Z,0
2022-09-20T03:05:24.757Z,0
2022-09-20T03:06:40.644Z,0
2022-09-20T03:07:57.130Z,0
2022-09-20T03:09:13.011Z,0
2022-09-20T03:10:29.499Z,0
2022-09-20T03:11:45.395Z,0
2022-09-20T03:13:01.573Z,0
2022-09-20T03:14:18.079Z,0
2022-09-20T03:15:34.261Z,0
2022-09-20T03:16:50.464Z,0
2022-09-20T03:18:05.355Z,0
2022-09-20T03:19:21.543Z,0
2022-09-20T03:20:37.729Z,0
2022-09-20T03:21:53.922Z,0
2022-09-20T03:23:10.104Z,0
2022-09-20T03:24:26.606Z,0
2022-09-20T03:25:42.795Z,0
2022-09-20T03:26:58.681Z,0
2022-09-20T03:28:15.174Z,0
2022-09-20T03:29:31.366Z,0
2022-09-20T03:30:47.230Z,0
2022-09-20T03:32:03.733Z,0
2022-09-20T03:33:19.924Z,0
2022-09-20T03:34:34.829Z,0
2022-09-20T03:35:51.006Z,0
2022-09-20T03:37:07.206Z,0
2022-09-20T03:38:23.690Z,0
2022-09-20T03:39:39.886Z,0
2022-09-20T03:40:56.087Z,0
2022-09-20T03:42:12.272Z,0
2022-09-20T03:43:28.455Z,0
2022-09-20T03:44:44.640Z,0
2022-09-20T03:46:00.829Z,0
2022-09-20T03:47:17.015Z,0
2022-09-20T03:48:33.207Z,0
2022-09-20T03:49:49.095Z,0
2022-09-20T03:51:04.612Z,0
2022-09-20T03:52:20.481Z,0
2022-09-20T03:53:36.988Z,0
2022-09-20T03:54:53.170Z,0
2022-09-20T03:56:09.040Z,0
2022-09-20T03:57:25.231Z,0
2022-09-20T03:58:41.736Z,0
2022-09-20T03:59:57.929Z,0
2022-09-20T04:01:14.109Z,0
2022-09-20T04:02:30.303Z,0
2022-09-20T04:03:46.493Z,0
2022-09-20T04:05:02.365Z,0
2022-09-20T04:06:18.864Z,0
2022-09-20T04:07:34.074Z,0
2022-09-20T04:08:50.268Z,0
2022-09-20T04:10:06.137Z,0
2022-09-20T04:11:22.654Z,0
2022-09-20T04:12:38.519Z,0
2022-09-20T04:13:54.708Z,0
2022-09-20T04:15:10.888Z,0
2022-09-20T04:16:27.396Z,0
2022-09-20T04:17:43.601Z,0
2022-09-20T04:18:59.787Z,0
2022-09-20T04:20:15.639Z,0
2022-09-20T04:21:32.162Z,0
2022-09-20T04:22:48.030Z,0
2022-09-20T04:24:03.547Z,0
2022-09-20T04:25:19.751Z,0
2022-09-20T04:26:35.613Z,0
2022-09-20T04:27:51.790Z,4
2022-09-20T04:29:08.319Z,4
2022-09-20T04:30:23.515Z,4
2022-09-20T04:31:39.712Z,4
2022-09-20T04:32:55.891Z,4
2022-09-20T04:34:12.086Z,8
2022-09-20T04:35:27.955Z,8
2022-09-20T04:36:44.462Z,8
2022-09-20T04:38:00.326Z,12
2022-09-20T04:39:16.841Z,16
2022-09-20T04:40:33.030Z,16
2022-09-20T04:41:49.225Z,20
2022-09-20T04:43:05.080Z,28
2022-09-20T04:44:21.590Z,28
2022-09-20T04:45:37.780Z,32
2022-09-20T04:46:52.995Z,40
2022-09-20T04:48:08.851Z,44
2022-09-20T04:49:25.376Z,48
2022-09-20T04:50:41.232Z,56
2022-09-20T04:51:57.418Z,60
2022-09-20T04:53:13.935Z,72
2022-09-20T04:54:30.126Z,76
2022-09-20T04:55:45.979Z,88
2022-09-20T04:57:02.512Z,96
2022-09-20T04:58:18.685Z,104
2022-09-20T04:59:34.558Z,116
2022-09-20T05:00:51.071Z,132
2022-09-20T05:02:07.260Z,144
2022-09-20T05:03:22.468Z,152
2022-09-20T05:04:38.332Z,164
2022-09-20T05:05:54.515Z,176
2022-09-20T05:07:11.028Z,196
2022-09-20T05:08:27.233Z,212
2022-09-20T05:09:43.413Z,236
2022-09-20T05:10:59.605Z,256
2022-09-20T05:12:15.792Z,272
2022-09-20T05:13:31.652Z,288
2022-09-20T05:14:48.177Z,308
2022-09-20T05:16:04.360Z,328
2022-09-20T05:17:20.210Z,340
2022-09-20T05:18:36.739Z,356
2022-09-20T05:19:51.935Z,376
2022-09-20T05:21:07.789Z,396
2022-09-20T05:22:24.311Z,408
2022-09-20T05:23:40.514Z,424
2022-09-20T05:24:56.702Z,444
2022-09-20T05:26:12.889Z,468
2022-09-20T05:27:29.072Z,492
2022-09-20T05:28:44.926Z,516
2022-09-20T05:30:01.114Z,548
2022-09-20T05:31:17.644Z,592
2022-09-20T05:32:33.823Z,648
2022-09-20T05:33:49.682Z,672
2022-09-20T05:35:06.206Z,704
2022-09-20T05:36:21.079Z,736
2022-09-20T05:37:37.601Z,768
2022-09-20T05:38:53.460Z,764
2022-09-20T05:40:09.977Z,792
2022-09-20T05:41:25.831Z,812
2022-09-20T05:42:42.367Z,864
2022-09-20T05:43:58.217Z,872
2022-09-20T05:45:14.747Z,880
2022-09-20T05:46:30.925Z,884
2022-09-20T05:47:47.121Z,892
2022-09-20T05:49:03.309Z,900
2022-09-20T05:50:19.495Z,916
2022-09-20T05:51:35.337Z,936
2022-09-20T05:52:50.894Z,968
2022-09-20T05:54:07.070Z,988
2022-09-20T05:55:23.191Z,1012
2022-09-20T05:56:39.463Z,1044
2022-09-20T05:57:55.583Z,1052
2022-09-20T05:59:11.761Z,1004
2022-09-20T06:00:28.021Z,1004
2022-09-20T06:01:44.208Z,988
2022-09-20T06:03:00.404Z,1008
2022-09-20T06:04:16.601Z,1132
2022-09-20T06:05:32.772Z,1192
2022-09-20T06:06:48.892Z,1200
2022-09-20T06:08:05.077Z,1204
2022-09-20T06:09:20.297Z,1148
2022-09-20T06:10:36.551Z,1236
2022-09-20T06:11:52.742Z,1244
2022-09-20T06:13:08.932Z,1260
2022-09-20T06:14:25.049Z,1296
2022-09-20T06:15:41.316Z,1348
2022-09-20T06:16:57.489Z,1168
2022-09-20T06:18:13.683Z,1128
2022-09-20T06:19:29.797Z,1376
2022-09-20T06:20:45.993Z,1364
2022-09-20T06:22:02.189Z,1444
2022-09-20T06:23:18.445Z,1468
2022-09-20T06:24:34.562Z,1468
2022-09-20T06:25:49.771Z,1464
2022-09-20T06:27:06.047Z,1444
2022-09-20T06:28:22.208Z,1520
2022-09-20T06:29:38.331Z,1552
2022-09-20T06:30:54.597Z,1424
2022-09-20T06:32:10.704Z,1480
2022-09-20T06:33:26.891Z,1700
2022-09-20T06:34:43.171Z,1460
2022-09-20T06:35:59.341Z,1420
2022-09-20T06:37:15.468Z,1384
2022-09-20T06:38:31.725Z,1404
2022-09-20T06:39:47.909Z,1692
2022-09-20T06:41:04.030Z,1604
2022-09-20T06:42:19.231Z,1692
2022-09-20T06:43:35.509Z,1900
2022-09-20T06:44:51.619Z,1780
2022-09-20T06:46:07.800Z,1780
2022-09-20T06:47:24.067Z,2080
2022-09-20T06:48:40.263Z,2032
2022-09-20T06:49:56.374Z,2148
2022-09-20T06:51:12.645Z,2240
2022-09-20T06:52:28.734Z,2256
2022-09-20T06:53:45.019Z,2204
2022-09-20T06:55:01.206Z,2088
2022-09-20T06:56:17.395Z,2100
2022-09-20T06:57:33.507Z,2084
2022-09-20T06:58:48.795Z,2156
2022-09-20T07:00:04.896Z,2172
2022-09-20T07:01:21.159Z,2132
2022-09-20T07:02:37.267Z,2024
2022-09-20T07:03:53.545Z,1916
2022-09-20T07:05:09.638Z,1860
2022-09-20T07:06:25.922Z,1780
2022-09-20T07:07:42.027Z,1696
2022-09-20T07:08:58.304Z,1716
2022-09-20T07:10:14.497Z,1948
2022-09-20T07:11:30.677Z,1708
2022-09-20T07:12:46.875Z,1656
2022-09-20T07:14:03.048Z,1656
2022-09-20T07:15:18.186Z,1568
2022-09-20T07:16:34.358Z,1412
2022-09-20T07:17:50.560Z,1336
2022-09-20T07:19:06.731Z,1344
2022-09-20T07:20:23.025Z,1544
2022-09-20T07:21:39.210Z,1436
2022-09-20T07:22:55.318Z,1312
2022-09-20T07:24:11.505Z,1244
2022-09-20T07:25:27.766Z,1088
2022-09-20T07:26:43.879Z,1168
2022-09-20T07:28:00.160Z,1096
2022-09-20T07:29:16.350Z,1152
2022-09-20T07:30:32.448Z,1080
2022-09-20T07:31:47.737Z,1024
2022-09-20T07:33:03.838Z,1016
2022-09-20T07:34:20.108Z,1016
2022-09-20T07:35:36.294Z,1032
2022-09-20T07:36:52.407Z,1060
2022-09-20T07:38:08.584Z,1084
2022-09-20T07:39:24.874Z,992
2022-09-20T07:40:41.056Z,1040
2022-09-20T07:41:57.255Z,1068
2022-09-20T07:43:13.354Z,1096
2022-09-20T07:44:29.524Z,1096
2022-09-20T07:45:45.715Z,1100
2022-09-20T07:47:02.014Z,1068
2022-09-20T07:48:17.214Z,1112
2022-09-20T07:49:33.401Z,1116
2022-09-20T07:50:49.581Z,1092
2022-09-20T07:52:05.786Z,1104
2022-09-20T07:53:21.867Z,1096
2022-09-20T07:54:38.155Z,1100
2022-09-20T07:55:54.343Z,1096
2022-09-20T07:57:10.537Z,1092
2022-09-20T07:58:26.724Z,1084
2022-09-20T07:59:42.905Z,1080
2022-09-20T08:00:59.107Z,1076
2022-09-20T08:02:15.194Z,1076
2022-09-20T08:03:31.477Z,1080
2022-09-20T08:04:46.674Z,1080
2022-09-20T08:06:02.864Z,1080
2022-09-20T08:07:19.066Z,1080
2022-09-20T08:08:35.162Z,1084
2022-09-20T08:09:51.443Z,1084
2022-09-20T08:11:07.525Z,1080
2022-09-20T08:12:23.819Z,1080
2022-09-20T08:13:40.014Z,1080
2022-09-20T08:14:56.187Z,1088
2022-09-20T08:16:12.285Z,1088
2022-09-20T08:17:28.578Z,1092
2022-09-20T08:18:44.665Z,1088
2022-09-20T08:20:00.945Z,1084
2022-09-20T08:21:16.058Z,1088
2022-09-20T08:22:32.350Z,1088
2022-09-20T08:23:48.440Z,1116
2022-09-20T08:25:04.716Z,1328
2022-09-20T08:26:20.907Z,1104
2022-09-20T08:27:37.109Z,1100
2022-09-20T08:28:53.291Z,1100
2022-09-20T08:30:09.381Z,1100
2022-09-20T08:31:25.570Z,1104
2022-09-20T08:32:41.847Z,1108
2022-09-20T08:33:58.040Z,1116
2022-09-20T08:35:14.239Z,1124
2022-09-20T08:36:30.309Z,1168
2022-09-20T08:37:45.525Z,1180
2022-09-20T08:39:01.695Z,1536
2022-09-20T08:40:17.987Z,1380
2022-09-20T08:41:34.178Z,1392
2022-09-20T08:42:50.372Z,1136
2022-09-20T08:44:06.444Z,1384
2022-09-20T08:45:21.759Z,1684
2022-09-20T08:46:37.961Z,1152
2022-09-20T08:47:54.141Z,1172
2022-09-20T08:49:10.320Z,1368
2022-09-20T08:50:26.506Z,1460
2022-09-20T08:51:42.700Z,1444
2022-09-20T08:52:58.776Z,1488
2022-09-20T08:54:14.977Z,1456
2022-09-20T08:55:31.260Z,1372
2022-09-20T08:56:47.442Z,1164
2022-09-20T08:58:03.636Z,1124
2022-09-20T08:59:19.818Z,1236
2022-09-20T09:00:36.017Z,1292
2022-09-20T09:01:51.111Z,1212
2022-09-20T09:03:07.408Z,1244
2022-09-20T09:04:23.596Z,1256
2022-09-20T09:05:39.770Z,1232
2022-09-20T09:06:55.975Z,1456
2022-09-20T09:08:12.160Z,1528
2022-09-20T09:09:28.231Z,1776
2022-09-20T09:10:44.534Z,1604
2022-09-20T09:12:00.727Z,1624
2022-09-20T09:13:16.894Z,1696
2022-09-20T09:14:33.090Z,1420
2022-09-20T09:15:49.274Z,1776
2022-09-20T09:17:05.365Z,1348
2022-09-20T09:18:20.666Z,1248
2022-09-20T09:19:36.752Z,1508
2022-09-20T09:20:53.034Z,1396
2022-09-20T09:22:09.226Z,1452
2022-09-20T09:23:25.426Z,1608
2022-09-20T09:24:41.608Z,2160
2022-09-20T09:25:57.788Z,1592
2022-09-20T09:27:13.868Z,1764
2022-09-20T09:28:30.176Z,1932
2022-09-20T09:29:46.357Z,3144
2022-09-20T09:31:02.438Z,2744
2022-09-20T09:32:18.621Z,2060
2022-09-20T09:33:34.911Z,3372
2022-09-20T09:34:50.124Z,2368
2022-09-20T09:36:06.318Z,2092
2022-09-20T09:37:22.487Z,3404
2022-09-20T09:38:38.561Z,3616
2022-09-20T09:39:54.756Z,1744
2022-09-20T09:41:11.064Z,2752
2022-09-20T09:42:27.253Z,3992
2022-09-20T09:43:43.433Z,3240
2022-09-20T09:44:59.626Z,2004
2022-09-20T09:46:15.807Z,1412
2022-09-20T09:47:31.884Z,2076
2022-09-20T09:48:48.193Z,2776
2022-09-20T09:50:04.376Z,3476
2022-09-20T09:51:19.568Z,3860
2022-09-20T09:52:35.760Z,3364
2022-09-20T09:53:51.945Z,2744
2022-09-20T09:55:08.012Z,2932
2022-09-20T09:56:24.328Z,3020
2022-09-20T09:57:40.505Z,2516
2022-09-20T09:58:56.690Z,2764
2022-09-20T10:00:12.770Z,2740
2022-09-20T10:01:29.082Z,4732
2022-09-20T10:02:45.260Z,5996
2022-09-20T10:04:01.336Z,5452
2022-09-20T10:05:17.637Z,4312
2022-09-20T10:06:33.815Z,3804
2022-09-20T10:07:49.020Z,3792
2022-09-20T10:09:05.101Z,2856
2022-09-20T10:10:21.275Z,3376
2022-09-20T10:11:37.599Z,3068
2022-09-20T10:12:53.656Z,2624
2022-09-20T10:14:09.969Z,2528
2022-09-20T10:15:26.021Z,2680
2022-09-20T10:16:42.214Z,2728
2022-09-20T10:17:58.409Z,3092
2022-09-20T10:19:14.710Z,4144
2022-09-20T10:20:30.899Z,6072
2022-09-20T10:21:46.958Z,5348
2022-09-20T10:23:03.270Z,4948
2022-09-20T10:24:18.354Z,4476
2022-09-20T10:25:34.668Z,4996
2022-09-20T10:26:50.860Z,5876
2022-09-20T10:28:07.042Z,7284
2022-09-20T10:29:23.237Z,6244
2022-09-20T10:30:39.413Z,5292
2022-09-20T10:31:55.612Z,4692
2022-09-20T10:33:11.667Z,4332
2022-09-20T10:34:27.971Z,6308
2022-09-20T10:35:44.162Z,6264
2022-09-20T10:37:00.355Z,5900
2022-09-20T10:38:16.546Z,5472
2022-09-20T10:39:32.723Z,5132
2022-09-20T10:40:47.939Z,5812
2022-09-20T10:42:03.987Z,8980
2022-09-20T10:43:20.299Z,5252
2022-09-20T10:44:36.488Z,4880
2022-09-20T10:45:52.676Z,4828
2022-09-20T10:47:08.867Z,5292
2022-09-20T10:48:25.053Z,5672
2022-09-20T10:49:41.252Z,5592
2022-09-20T10:50:57.298Z,6060
2022-09-20T10:52:13.623Z,5664
2022-09-20T10:53:29.799Z,4352
2022-09-20T10:54:45.984Z,3056
2022-09-20T10:56:02.172Z,3024
2022-09-20T10:57:17.376Z,2640
2022-09-20T10:58:33.565Z,2256
2022-09-20T10:59:49.757Z,2056
2022-09-20T11:01:05.953Z,2208
2022-09-20T11:02:22.124Z,2256
2022-09-20T11:03:38.177Z,2184
2022-09-20T11:04:54.505Z,2088
2022-09-20T11:06:10.688Z,1880
2022-09-20T11:07:26.888Z,1628
2022-09-20T11:08:43.065Z,1460
2022-09-20T11:09:59.258Z,1376
2022-09-20T11:11:15.316Z,964
2022-09-20T11:12:31.625Z,736
2022-09-20T11:13:46.833Z,964
2022-09-20T11:15:03.029Z,1136
2022-09-20T11:16:19.073Z,1100
2022-09-20T11:17:35.386Z,952
2022-09-20T11:18:51.448Z,796
2022-09-20T11:20:07.770Z,948
2022-09-20T11:21:23.819Z,1188
2022-09-20T11:22:40.149Z,1104
2022-09-20T11:23:56.000Z,732
2022-09-20T11:25:12.372Z,244
2022-09-20T11:26:28.579Z,176
2022-09-20T11:27:44.902Z,172
2022-09-20T11:29:01.090Z,252
2022-09-20T11:30:16.282Z,364
2022-09-20T11:31:32.334Z,368
2022-09-20T11:32:48.530Z,368
2022-09-20T11:34:04.703Z,372
2022-09-20T11:35:20.903Z,368
2022-09-20T11:36:37.223Z,348
2022-09-20T11:37:53.259Z,328
2022-09-20T11:39:09.599Z,316
2022-09-20T11:40:25.780Z,320
2022-09-20T11:41:41.826Z,340
2022-09-20T11:42:58.011Z,376
2022-09-20T11:44:14.206Z,424
2022-09-20T11:45:30.532Z,460
2022-09-20T11:46:45.592Z,516
2022-09-20T11:48:01.919Z,576
2022-09-20T11:49:17.971Z,640
2022-09-20T11:50:34.304Z,740
2022-09-20T11:51:50.480Z,880
2022-09-20T11:53:06.674Z,1056
2022-09-20T11:54:22.869Z,1216
2022-09-20T11:55:39.052Z,1368
2022-09-20T11:56:55.090Z,1520
2022-09-20T11:58:11.430Z,1660
2022-09-20T11:59:27.463Z,1828
2022-09-20T12:00:43.793Z,2004
2022-09-20T12:01:59.986Z,2192
2022-09-20T12:03:15.187Z,2380
2022-09-20T12:04:31.238Z,2532
2022-09-20T12:05:47.568Z,2620
2022-09-20T12:07:03.759Z,2668
2022-09-20T12:08:19.938Z,2668
2022-09-20T12:09:36.120Z,2664
2022-09-20T12:10:52.313Z,2656
2022-09-20T12:12:08.362Z,2760
2022-09-20T12:13:24.550Z,2968
2022-09-20T12:14:40.723Z,3204
2022-09-20T12:15:57.072Z,3408
2022-09-20T12:17:13.244Z,3744
2022-09-20T12:18:29.435Z,5272
2022-09-20T12:19:44.490Z,8668
2022-09-20T12:21:00.822Z,15256
2022-09-20T12:22:16.858Z,40064
2022-09-20T12:23:33.047Z,64384
2022-09-20T12:24:49.393Z,36416
2022-09-20T12:26:05.585Z,68992
2022-09-20T12:27:21.612Z,71712
2022-09-20T12:28:37.804Z,76096
2022-09-20T12:29:53.985Z,76096
2022-09-20T12:31:10.179Z,74688
2022-09-20T12:32:26.514Z,69536
2022-09-20T12:33:42.698Z,65664
2022-09-20T12:34:58.740Z,55808
2022-09-20T12:36:14.086Z,63488
2022-09-20T12:37:30.275Z,66816
2022-09-20T12:38:46.322Z,65024
2022-09-20T12:40:02.663Z,63616
2022-09-20T12:41:18.694Z,62784
2022-09-20T12:42:34.880Z,62592
2022-09-20T12:43:51.228Z,60448
2022-09-20T12:45:07.245Z,54176
2022-09-20T12:46:23.591Z,60064
2022-09-20T12:47:39.626Z,54912
2022-09-20T12:48:55.973Z,54816
2022-09-20T12:50:11.994Z,61408
2022-09-20T12:51:28.341Z,60864
2022-09-20T12:52:43.557Z,8576
2022-09-20T12:53:59.742Z,6676
2022-09-20T12:55:15.761Z,4800
2022-09-20T12:56:31.950Z,2304
2022-09-20T12:57:48.132Z,2908
2022-09-20T12:59:04.491Z,43072
2022-09-20T13:00:19.704Z,62720
2022-09-20T13:01:35.884Z,6452
2022-09-20T13:02:51.903Z,5492
2022-09-20T13:04:08.254Z,61408
2022-09-20T13:05:24.443Z,61600
2022-09-20T13:06:40.481Z,62464
2022-09-20T13:07:56.821Z,63104
2022-09-20T13:09:12.854Z,61728
2022-09-20T13:10:29.190Z,63680
2022-09-20T13:11:45.377Z,6816
2022-09-20T13:13:01.410Z,62304
2022-09-20T13:14:17.747Z,4696
2022-09-20T13:15:33.784Z,5924
2022-09-20T13:16:48.993Z,49024
2022-09-20T13:18:05.326Z,62560
2022-09-20T13:19:21.352Z,61408
2022-09-20T13:20:37.707Z,60128
2022-09-20T13:21:53.892Z,61152
2022-09-20T13:23:10.079Z,60768
2022-09-20T13:24:26.262Z,61248
2022-09-20T13:25:42.296Z,63392
2022-09-20T13:26:58.645Z,45856
2022-09-20T13:28:14.675Z,58592
2022-09-20T13:29:30.846Z,67648
2022-09-20T13:30:47.214Z,65952
2022-09-20T13:32:03.396Z,64416
2022-09-20T13:33:18.426Z,64896
2022-09-20T13:34:34.615Z,62656
2022-09-20T13:35:50.977Z,56992
2022-09-20T13:37:07.163Z,35328
2022-09-20T13:38:23.356Z,12556
2022-09-20T13:39:39.545Z,5808
2022-09-20T13:40:55.723Z,4788
2022-09-20T13:42:11.903Z,4216
2022-09-20T13:43:27.928Z,3248
2022-09-20T13:44:44.118Z,2092
2022-09-20T13:46:00.478Z,2340
2022-09-20T13:47:16.666Z,2236
2022-09-20T13:48:32.681Z,2252
2022-09-20T13:49:48.061Z,2272
2022-09-20T13:51:04.234Z,2204
2022-09-20T13:52:20.427Z,2276
2022-09-20T13:53:36.607Z,2460
2022-09-20T13:54:52.628Z,2672
2022-09-20T13:56:09.001Z,3612
2022-09-20T13:57:25.179Z,4520
2022-09-20T13:58:41.200Z,5552
2022-09-20T13:59:57.550Z,7152
2022-09-20T14:01:13.735Z,7456
2022-09-20T14:02:29.923Z,7752
2022-09-20T14:03:46.110Z,7164
2022-09-20T14:05:02.294Z,6680
2022-09-20T14:06:17.341Z,6320
2022-09-20T14:07:33.000Z,5876
2022-09-20T14:08:49.879Z,5364
2022-09-20T14:10:05.898Z,5628
2022-09-20T14:11:22.262Z,5556
2022-09-20T14:12:38.278Z,4984
2022-09-20T14:13:54.456Z,5004
2022-09-20T14:15:10.822Z,4912
2022-09-20T14:16:27.009Z,4716
2022-09-20T14:17:43.198Z,4180
2022-09-20T14:18:59.371Z,4160
2022-09-20T14:20:15.575Z,4728
2022-09-20T14:21:31.568Z,5224
2022-09-20T14:22:46.782Z,5264
2022-09-20T14:24:02.961Z,5380
2022-09-20T14:25:19.161Z,5620
2022-09-20T14:26:35.339Z,5428
2022-09-20T14:27:51.711Z,4536
2022-09-20T14:29:07.718Z,4172
2022-09-20T14:30:23.908Z,3884
2022-09-20T14:31:40.259Z,3856
2022-09-20T14:32:56.453Z,4112
2022-09-20T14:34:12.643Z,4060
2022-09-20T14:35:28.648Z,3892
2022-09-20T14:36:44.840Z,4212
2022-09-20T14:38:01.210Z,4860
2022-09-20T14:39:16.403Z,5024
2022-09-20T14:40:32.588Z,4528
2022-09-20T14:41:48.794Z,4116
2022-09-20T14:43:04.976Z,4072
2022-09-20T14:44:20.971Z,3944
2022-09-20T14:45:37.350Z,3972
2022-09-20T14:46:53.539Z,4124
2022-09-20T14:48:09.544Z,4316
2022-09-20T14:49:25.912Z,3964
2022-09-20T14:50:42.096Z,3556
2022-09-20T14:51:58.282Z,3188
2022-09-20T14:53:14.472Z,2940
2022-09-20T14:54:30.656Z,3056
2022-09-20T14:55:45.866Z,3396
2022-09-20T14:57:01.853Z,3660
2022-09-20T14:58:18.225Z,3696
2022-09-20T14:59:34.229Z,3676
2022-09-20T15:00:50.610Z,3440
2022-09-20T15:02:06.798Z,3244
2022-09-20T15:03:22.979Z,3592
2022-09-20T15:04:39.180Z,3892
2022-09-20T15:05:55.351Z,3452
2022-09-20T15:07:11.552Z,2660
2022-09-20T15:08:27.726Z,2076
2022-09-20T15:09:43.929Z,1656
2022-09-20T15:11:00.108Z,1532
2022-09-20T15:12:15.312Z,1724
2022-09-20T15:13:31.489Z,1660
2022-09-20T15:14:47.696Z,1480
2022-09-20T15:16:03.865Z,1276
2022-09-20T15:17:20.066Z,1392
2022-09-20T15:18:36.257Z,1376
2022-09-20T15:19:52.443Z,1360
2022-09-20T15:21:08.622Z,1136
2022-09-20T15:22:24.615Z,1080
2022-09-20T15:23:41.003Z,1232
2022-09-20T15:24:57.185Z,1296
2022-09-20T15:26:13.368Z,1104
2022-09-20T15:27:29.379Z,1056
2022-09-20T15:28:44.774Z,1080
2022-09-20T15:30:00.954Z,1152
2022-09-20T15:31:17.136Z,1184
2022-09-20T15:32:33.317Z,1300
2022-09-20T15:33:49.513Z,1128
2022-09-20T15:35:05.703Z,1680
2022-09-20T15:36:21.892Z,1132
2022-09-20T15:37:37.889Z,1100
2022-09-20T15:38:54.078Z,964
2022-09-20T15:40:10.448Z,988
2022-09-20T15:41:26.643Z,1080
2022-09-20T15:42:42.629Z,1016
2022-09-20T15:43:59.012Z,964
2022-09-20T15:45:14.027Z,928
2022-09-20T15:46:30.203Z,1196
2022-09-20T15:47:46.388Z,1352
2022-09-20T15:49:02.787Z,1476
2022-09-20T15:50:18.959Z,1480
2022-09-20T15:51:35.158Z,1400
2022-09-20T15:52:51.147Z,1300
2022-09-20T15:54:07.530Z,1116
2022-09-20T15:55:23.716Z,984
2022-09-20T15:56:39.907Z,880
2022-09-20T15:57:56.093Z,764
2022-09-20T15:59:12.075Z,648
2022-09-20T16:00:28.456Z,532
2022-09-20T16:01:43.671Z,448
2022-09-20T16:02:59.652Z,376
2022-09-20T16:04:15.847Z,320
2022-09-20T16:05:32.234Z,280
2022-09-20T16:06:48.418Z,268
2022-09-20T16:08:04.400Z,252
2022-09-20T16:09:20.593Z,244
2022-09-20T16:10:36.975Z,244
2022-09-20T16:11:53.176Z,256
2022-09-20T16:13:09.146Z,284
2022-09-20T16:14:25.538Z,312
2022-09-20T16:15:41.523Z,336
2022-09-20T16:16:57.717Z,364
2022-09-20T16:18:13.112Z,384
2022-09-20T16:19:29.302Z,400
2022-09-20T16:20:45.294Z,420
2022-09-20T16:22:01.671Z,428
2022-09-20T16:23:17.674Z,420
2022-09-20T16:24:33.852Z,392
2022-09-20T16:25:50.045Z,372
2022-09-20T16:27:06.438Z,360
2022-09-20T16:28:22.615Z,356
2022-09-20T16:29:38.610Z,360
2022-09-20T16:30:54.783Z,340
2022-09-20T16:32:11.190Z,320
2022-09-20T16:33:27.366Z,320
2022-09-20T16:34:42.562Z,328
2022-09-20T16:35:58.767Z,328
2022-09-20T16:37:14.940Z,328
2022-09-20T16:38:31.135Z,320
2022-09-20T16:39:47.314Z,312
2022-09-20T16:41:03.499Z,316
2022-09-20T16:42:19.687Z,312
2022-09-20T16:43:35.685Z,296
2022-09-20T16:44:52.062Z,280
2022-09-20T16:46:08.053Z,268
2022-09-20T16:47:24.448Z,256
2022-09-20T16:48:40.625Z,236
2022-09-20T16:49:56.000Z,224
2022-09-20T16:51:12.029Z,216
2022-09-20T16:52:28.212Z,200
2022-09-20T16:53:44.201Z,192
2022-09-20T16:55:00.385Z,176
2022-09-20T16:56:16.767Z,168
2022-09-20T16:57:32.952Z,156
2022-09-20T16:58:49.143Z,140
2022-09-20T17:00:05.331Z,128
2022-09-20T17:01:21.304Z,120
2022-09-20T17:02:37.499Z,112
2022-09-20T17:03:53.894Z,96
2022-09-20T17:05:10.077Z,92
2022-09-20T17:06:26.264Z,80
2022-09-20T17:07:41.262Z,72
2022-09-20T17:08:57.448Z,68
2022-09-20T17:10:13.648Z,60
2022-09-20T17:11:29.828Z,56
2022-09-20T17:12:46.234Z,48
2022-09-20T17:14:02.418Z,44
2022-09-20T17:15:17.625Z,36
2022-09-20T17:16:33.593Z,28
2022-09-20T17:17:50.004Z,28
2022-09-20T17:19:06.189Z,24
2022-09-20T17:20:22.152Z,20
2022-09-20T17:21:38.560Z,12
2022-09-20T17:22:54.543Z,12
2022-09-20T17:24:10.724Z,8
2022-09-20T17:25:27.124Z,8
2022-09-20T17:26:43.089Z,8